Time;durP1;ratioP1;P1;durP2;ratioP2;P2;SDS_P1;SDS_P2;PMS_P1;PMS_P2;Temp;Humidity;BMP_temperature;BMP_pressure;BME280_temperature;BME280_humidity;BME280_pressure;Samples;Min_cycle;Max_cycle;Signal;HPM_P1;HPM_P2
2023/10/11 00:01:47;;;;;;;8.70;3.10;;;;;;;15.33;66.34;101037.06;5023922;27;97085;-78
2023/10/11 00:04:23;;;;;;;4.10;2.90;;;;;;;15.28;66.46;101049.09;5026988;27;97341;-78
2023/10/11 00:06:49;;;;;;;5.60;3.00;;;;;;;15.27;66.48;101030.13;5025565;27;97253;-78
2023/10/11 00:09:16;;;;;;;6.70;3.77;;;;;;;15.28;66.48;101034.41;5022365;27;100316;-77
2023/10/11 00:11:42;;;;;;;6.60;3.33;;;;;;;15.27;66.52;101025.28;5024861;27;97207;-77
2023/10/11 00:14:07;;;;;;;3.57;3.13;;;;;;;15.31;66.20;101013.81;5022963;27;96700;-77
2023/10/11 00:16:35;;;;;;;5.77;2.90;;;;;;;15.32;66.27;101043.19;5039098;27;99614;-77
2023/10/11 00:19:01;;;;;;;8.07;3.40;;;;;;;15.37;66.14;101009.59;5025580;27;97722;-77
2023/10/11 00:21:40;;;;;;;6.63;3.10;;;;;;;15.41;66.07;101012.81;5038895;27;97053;-78
2023/10/11 00:24:07;;;;;;;4.00;3.17;;;;;;;15.44;65.92;101031.25;5028015;27;97524;-77
2023/10/11 00:26:34;;;;;;;6.47;3.60;;;;;;;15.50;65.79;100995.59;5022494;27;97164;-78
2023/10/11 00:29:00;;;;;;;4.97;3.27;;;;;;;15.59;65.71;101000.00;5023136;27;99242;-76
2023/10/11 00:31:26;;;;;;;6.27;3.70;;;;;;;15.64;65.42;101002.63;5020827;27;97811;-78
2023/10/11 00:33:54;;;;;;;3.70;3.30;;;;;;;15.70;65.51;100994.88;5025894;27;96771;-77
2023/10/11 00:36:26;;;;;;;4.53;3.03;;;;;;;15.71;65.38;100996.38;5023607;27;98027;-78
2023/10/11 00:38:51;;;;;;;6.90;3.20;;;;;;;15.71;65.40;100988.00;5025714;27;97241;-77
2023/10/11 00:41:17;;;;;;;3.60;3.30;;;;;;;15.74;65.24;101000.13;5026549;27;96817;-77
2023/10/11 00:43:49;;;;;;;5.37;3.27;;;;;;;15.81;64.91;100991.81;5026007;27;96896;-77
2023/10/11 00:46:18;;;;;;;10.03;4.00;;;;;;;15.88;64.71;101001.56;5025180;27;96889;-78
2023/10/11 00:48:54;;;;;;;5.03;3.40;;;;;;;15.96;64.58;100998.84;5039199;27;100031;-77
2023/10/11 00:51:30;;;;;;;6.37;3.70;;;;;;;15.99;64.34;100992.16;5025010;27;97255;-77
2023/10/11 00:53:56;;;;;;;5.80;4.00;;;;;;;15.98;64.35;101002.59;5018104;27;97988;-77
2023/10/11 00:56:22;;;;;;;7.97;3.30;;;;;;;16.01;64.27;101007.06;5039307;27;100913;-77
2023/10/11 00:58:52;;;;;;;3.93;3.17;;;;;;;16.03;64.21;100998.91;5025439;27;97571;-77
2023/10/11 01:01:18;;;;;;;8.90;3.50;;;;;;;16.07;64.12;101018.13;5026655;27;97533;-78
2023/10/11 01:03:44;;;;;;;5.23;2.90;;;;;;;16.13;63.86;100996.38;5025188;27;97124;-77
2023/10/11 01:06:10;;;;;;;4.97;3.30;;;;;;;16.17;63.63;100996.78;5025020;27;96763;-78
2023/10/11 01:08:40;;;;;;;4.60;3.47;;;;;;;16.22;63.47;101001.47;5023322;27;97091;-77
2023/10/11 01:11:05;;;;;;;6.33;3.13;;;;;;;16.27;63.28;100990.16;5023422;27;97232;-76
2023/10/11 01:13:31;;;;;;;3.77;2.77;;;;;;;16.30;62.95;100999.47;5024366;27;97271;-76
2023/10/11 01:15:56;;;;;;;8.43;3.60;;;;;;;16.35;62.98;100995.78;5038573;27;106351;-77
2023/10/11 01:18:21;;;;;;;7.73;3.07;;;;;;;16.38;62.84;100989.84;5020214;27;98951;-75
2023/10/11 01:20:46;;;;;;;3.70;3.17;;;;;;;16.41;62.80;100994.34;5022370;27;97716;-78
2023/10/11 01:23:12;;;;;;;7.83;2.90;;;;;;;16.45;62.75;100993.97;5023238;27;100107;-76
2023/10/11 01:25:37;;;;;;;9.67;3.10;;;;;;;16.46;62.86;100990.63;5019880;27;99158;-78
2023/10/11 01:28:03;;;;;;;4.93;3.30;;;;;;;16.49;62.48;100999.97;5024300;27;97094;-78
2023/10/11 01:30:28;;;;;;;3.07;2.77;;;;;;;16.54;62.18;100988.66;5023649;27;97864;-77
2023/10/11 01:32:57;;;;;;;3.70;3.00;;;;;;;16.55;61.98;100992.19;5023614;27;97169;-77
2023/10/11 01:35:22;;;;;;;5.57;3.40;;;;;;;16.59;62.00;100954.22;5022765;27;99460;-77
2023/10/11 01:37:49;;;;;;;5.23;3.60;;;;;;;16.61;61.93;100973.97;5023214;27;99663;-77
2023/10/11 01:40:20;;;;;;;3.87;3.27;;;;;;;16.64;61.57;100978.44;5022948;27;97062;-77
2023/10/11 01:42:49;;;;;;;6.30;3.50;;;;;;;16.66;61.45;100975.09;5022066;27;97320;-77
2023/10/11 01:45:17;;;;;;;4.23;3.07;;;;;;;16.69;61.50;100974.00;5023943;27;97171;-78
2023/10/11 01:47:43;;;;;;;5.50;3.30;;;;;;;16.71;61.31;100973.47;5026008;27;99118;-77
2023/10/11 01:50:08;;;;;;;3.60;3.20;;;;;;;16.71;61.22;100968.63;5029274;27;97306;-77
2023/10/11 01:52:34;;;;;;;3.93;3.43;;;;;;;16.74;60.90;100978.72;5021247;27;97909;-77
2023/10/11 01:55:01;;;;;;;5.90;3.00;;;;;;;16.79;60.84;100960.31;5027399;27;99208;-78
2023/10/11 01:57:26;;;;;;;3.90;3.00;;;;;;;16.77;60.94;100966.44;5024425;27;98368;-77
2023/10/11 01:59:52;;;;;;;4.20;3.40;;;;;;;16.78;60.77;100959.53;5025521;27;97181;-77
2023/10/11 02:02:18;;;;;;;4.53;3.23;;;;;;;16.80;60.59;100973.72;5024148;27;96796;-77
2023/10/11 02:04:43;;;;;;;8.97;2.83;;;;;;;16.82;60.35;100964.78;5020617;27;98435;-76
2023/10/11 02:07:09;;;;;;;6.33;3.50;;;;;;;16.82;60.58;100959.19;5020717;27;100375;-77
2023/10/11 02:09:34;;;;;;;5.00;3.37;;;;;;;16.84;60.53;100957.34;5025170;27;97116;-76
2023/10/11 02:11:59;;;;;;;5.40;3.43;;;;;;;16.82;60.43;100943.16;5026669;27;96998;-78
2023/10/11 02:14:28;;;;;;;5.03;3.87;;;;;;;16.83;60.39;100955.09;5024352;27;101506;-78
2023/10/11 02:16:54;;;;;;;5.73;3.17;;;;;;;16.85;60.42;100964.44;5021570;27;99890;-78
2023/10/11 02:19:22;;;;;;;6.40;3.53;;;;;;;16.81;60.34;100961.25;5025266;27;97001;-77
2023/10/11 02:21:48;;;;;;;4.37;3.30;;;;;;;16.83;60.66;100950.25;5024158;27;96943;-78
2023/10/11 02:24:17;;;;;;;3.83;3.37;;;;;;;16.81;60.12;100963.28;5026023;27;97908;-77
2023/10/11 02:26:49;;;;;;;3.73;3.20;;;;;;;16.85;60.14;100955.28;5023342;27;96901;-77
2023/10/11 02:29:21;;;;;;;3.53;3.20;;;;;;;16.85;59.82;100952.50;5022290;27;96562;-77
2023/10/11 02:31:54;;;;;;;3.67;2.87;;;;;;;16.87;59.45;100947.84;5019681;27;97929;-77
2023/10/11 02:34:20;;;;;;;4.93;3.27;;;;;;;16.89;59.77;100956.44;5037454;27;101445;-77
2023/10/11 02:36:56;;;;;;;3.63;3.20;;;;;;;16.91;59.89;100953.81;5019359;27;102916;-77
2023/10/11 02:39:31;;;;;;;3.67;2.93;;;;;;;16.91;59.80;100962.22;5037289;27;97361;-78
2023/10/11 02:41:57;;;;;;;4.70;3.10;;;;;;;16.91;59.61;100948.22;5023657;27;96927;-77
2023/10/11 02:44:23;;;;;;;5.30;3.50;;;;;;;16.89;59.76;100947.28;5023904;27;97845;-77
2023/10/11 02:46:49;;;;;;;4.93;3.27;;;;;;;16.88;59.97;100954.91;5022385;27;97994;-77
2023/10/11 02:49:20;;;;;;;8.50;3.80;;;;;;;16.83;59.97;100947.47;5023518;27;96739;-77
2023/10/11 02:52:13;;;;;;;4.30;3.90;;;;;;;16.84;59.95;100951.00;5024238;27;98742;-77
2023/10/11 02:54:40;;;;;;;3.50;2.83;;;;;;;16.80;59.97;100947.81;5022027;27;97353;-77
2023/10/11 02:57:06;;;;;;;6.80;3.30;;;;;;;16.78;59.96;100944.81;5023472;27;97860;-76
2023/10/11 02:59:33;;;;;;;3.93;3.53;;;;;;;16.76;59.78;100950.22;5022801;27;97203;-77
2023/10/11 03:02:04;;;;;;;5.50;3.97;;;;;;;16.79;59.61;100946.34;5023664;27;97397;-77
2023/10/11 03:04:38;;;;;;;4.30;3.03;;;;;;;16.79;59.67;100938.66;5023501;27;97128;-77
2023/10/11 03:07:03;;;;;;;5.30;3.87;;;;;;;16.78;59.54;100944.81;5022608;27;97454;-77
2023/10/11 03:09:29;;;;;;;6.43;4.20;;;;;;;16.79;59.69;100954.72;5020529;27;97530;-77
2023/10/11 03:12:05;;;;;;;3.80;3.03;;;;;;;16.75;59.49;100938.28;5019946;27;97393;-78
2023/10/11 03:14:40;;;;;;;3.60;3.10;;;;;;;16.77;59.56;100946.13;5023353;27;98447;-77
2023/10/11 03:17:06;;;;;;;6.60;3.23;;;;;;;16.79;59.62;100935.88;5027761;27;97044;-77
2023/10/11 03:19:34;;;;;;;4.00;2.83;;;;;;;16.79;59.50;100946.34;5026696;27;96802;-77
2023/10/11 03:22:02;;;;;;;3.03;2.73;;;;;;;16.74;59.49;100942.41;5030267;27;97236;-77
2023/10/11 03:24:33;;;;;;;6.53;3.60;;;;;;;16.77;59.31;100935.69;5028354;27;97435;-77
2023/10/11 03:27:00;;;;;;;4.70;3.50;;;;;;;16.76;59.22;100939.78;5026493;27;97429;-77
2023/10/11 03:29:26;;;;;;;9.67;3.47;;;;;;;16.75;59.23;100937.56;5023706;27;97108;-77
2023/10/11 03:31:55;;;;;;;3.93;3.20;;;;;;;16.73;59.11;100928.97;5024554;27;97685;-76
2023/10/11 03:34:20;;;;;;;4.10;3.07;;;;;;;16.73;59.13;100938.09;5026662;27;96822;-76
2023/10/11 03:36:52;;;;;;;5.20;3.30;;;;;;;16.74;59.14;100931.22;5021151;27;106614;-77
2023/10/11 03:39:28;;;;;;;8.63;4.00;;;;;;;16.73;59.34;100921.34;5024255;27;96846;-77
2023/10/11 03:42:07;;;;;;;7.73;3.70;;;;;;;16.71;59.13;100925.97;5024327;27;97087;-77
2023/10/11 03:44:36;;;;;;;4.80;4.00;;;;;;;16.71;59.43;100900.81;5023998;27;97571;-76
2023/10/11 03:47:26;;;;;;;3.97;2.67;;;;;;;16.70;59.16;100914.03;5026955;27;99936;-76
2023/10/11 03:52:22;;;;;;;3.87;3.20;;;;;;;16.70;59.28;100905.66;5012524;27;97741;-76
2023/10/11 03:54:52;;;;;;;6.00;3.60;;;;;;;16.68;59.25;100905.47;5021999;28;100627;-76
2023/10/11 03:57:18;;;;;;;4.10;3.37;;;;;;;16.65;59.25;100909.34;5023387;27;97667;-76
2023/10/11 03:59:47;;;;;;;4.00;3.33;;;;;;;16.63;59.07;100915.50;5020243;27;97410;-76
2023/10/11 04:02:14;;;;;;;4.10;3.70;;;;;;;16.62;58.93;100902.81;5024233;28;99130;-76
2023/10/11 04:04:40;;;;;;;3.33;2.93;;;;;;;16.64;59.00;100913.44;5021583;28;99688;-76
2023/10/11 04:07:06;;;;;;;3.70;2.87;;;;;;;16.65;58.82;100909.34;5021544;28;100127;-76
2023/10/11 04:09:32;;;;;;;4.37;3.63;;;;;;;16.65;58.72;100907.31;5016562;28;97415;-77
2023/10/11 04:12:00;;;;;;;7.20;3.57;;;;;;;16.64;58.76;100900.22;5022245;28;96813;-76
2023/10/11 04:14:40;;;;;;;5.70;3.10;;;;;;;16.65;58.62;100896.16;5037999;27;98507;-78
2023/10/11 04:20:18;;;;;;;3.33;2.90;;;;;;;16.64;58.60;100893.88;5018553;27;96871;-78
2023/10/11 04:25:39;;;;;;;5.17;2.97;;;;;;;16.64;58.54;100883.47;5018916;27;98842;-77
2023/10/11 04:28:05;;;;;;;4.27;3.33;;;;;;;16.65;58.45;100873.78;5022947;27;97926;-78
2023/10/11 04:30:53;;;;;;;4.07;3.30;;;;;;;16.67;58.52;100887.19;5023339;28;97197;-78
2023/10/11 04:33:21;;;;;;;7.57;3.20;;;;;;;16.64;58.61;100863.91;5024374;28;97321;-77
2023/10/11 04:35:55;;;;;;;4.70;3.23;;;;;;;16.63;58.43;100882.00;5022535;28;97351;-77
2023/10/11 04:38:21;;;;;;;4.50;3.47;;;;;;;16.65;58.35;100881.41;5022197;28;97075;-77
2023/10/11 04:40:53;;;;;;;4.67;3.43;;;;;;;16.66;58.20;100874.53;5021385;28;97122;-78
2023/10/11 04:43:25;;;;;;;3.90;3.10;;;;;;;16.65;58.39;100861.88;5024018;28;97265;-77
2023/10/11 04:45:53;;;;;;;5.27;3.40;;;;;;;16.63;58.39;100861.69;5019193;28;99685;-77
2023/10/11 04:48:33;;;;;;;4.03;2.90;;;;;;;16.64;58.52;100865.94;5023335;28;96769;-77
2023/10/11 04:53:54;;;;;;;8.33;3.13;;;;;;;16.62;58.21;100860.16;5020293;28;97094;-77
2023/10/11 04:57:07;;;;;;;7.00;3.10;;;;;;;16.64;58.23;100857.56;5021349;28;97011;-78
2023/10/11 04:59:07;;;;;;;3.63;2.90;;;;;;;16.62;58.17;100854.59;5002305;28;97085;-78
2023/10/11 05:04:13;;;;;;;4.60;2.90;;;;;;;16.65;58.01;100859.06;5023890;27;97171;-77
2023/10/11 05:06:41;;;;;;;5.17;3.10;;;;;;;16.64;58.00;100854.78;5020439;28;98210;-77
2023/10/11 05:11:50;;;;;;;4.30;2.97;;;;;;;16.62;57.97;100843.41;5022749;28;97085;-76
2023/10/11 05:18:06;;;;;;;4.90;2.67;;;;;;;16.59;57.85;100852.91;4958452;28;97581;-78
2023/10/11 05:27:57;;;;;;;3.90;3.07;;;;;;;16.57;57.71;100866.69;5020326;28;101466;-77
2023/10/11 05:30:28;;;;;;;3.97;2.90;;;;;;;16.59;57.67;100864.09;5023170;27;97957;-77
2023/10/11 05:32:58;;;;;;;4.90;3.07;;;;;;;16.59;57.68;100873.19;5021998;28;96804;-77
2023/10/11 05:51:32;;;;;;;5.40;3.47;;;;;;;16.55;57.67;100869.28;5021991;28;97307;-76
2023/10/11 05:54:02;;;;;;;5.30;3.37;;;;;;;16.54;57.60;100867.78;5020617;27;97135;-76
2023/10/11 05:56:33;;;;;;;4.03;3.20;;;;;;;16.55;57.66;100861.63;5020714;28;97062;-77
2023/10/11 05:59:03;;;;;;;9.43;3.00;;;;;;;16.56;57.71;100867.97;5019513;28;97488;-78
2023/10/11 06:01:30;;;;;;;5.23;3.10;;;;;;;16.56;57.53;100865.94;5036508;27;100706;-77
2023/10/11 06:03:56;;;;;;;5.20;3.17;;;;;;;16.59;57.55;100867.59;5020593;28;97473;-77
2023/10/11 06:06:38;;;;;;;6.00;3.57;;;;;;;16.59;57.66;100852.91;5021020;27;96774;-77
2023/10/11 06:09:05;;;;;;;4.43;3.60;;;;;;;16.59;57.57;100845.25;5017537;28;99233;-77
2023/10/11 06:11:36;;;;;;;6.03;3.63;;;;;;;16.57;57.66;100835.97;5037592;27;100144;-78
2023/10/11 06:14:04;;;;;;;6.63;3.00;;;;;;;16.56;57.61;100831.66;5021723;27;97332;-77
2023/10/11 06:16:37;;;;;;;4.70;3.10;;;;;;;16.58;57.54;100829.06;5021704;27;97784;-77
2023/10/11 06:19:16;;;;;;;5.70;3.30;;;;;;;16.56;57.48;100826.06;5021503;28;97494;-77
2023/10/11 06:21:57;;;;;;;3.13;2.47;;;;;;;16.59;57.35;100850.13;5019191;28;99542;-77
2023/10/11 06:24:24;;;;;;;4.87;2.97;;;;;;;16.62;57.53;100840.63;5020289;28;97121;-77
2023/10/11 06:29:22;;;;;;;4.10;2.73;;;;;;;16.64;57.54;100860.34;5021569;28;100724;-78
2023/10/11 06:31:48;;;;;;;3.93;3.00;;;;;;;16.67;57.52;100870.44;5018232;28;100318;-77
2023/10/11 06:36:49;;;;;;;3.40;3.00;;;;;;;16.67;57.34;100885.16;5020957;28;97267;-77
2023/10/11 06:42:21;;;;;;;3.23;2.60;;;;;;;16.72;57.49;100877.94;5017740;27;97211;-77
2023/10/11 06:44:58;;;;;;;5.50;3.07;;;;;;;16.71;56.88;100865.25;5022245;28;96685;-79
2023/10/11 06:47:25;;;;;;;6.53;3.67;;;;;;;16.71;57.41;100862.47;5021163;28;97506;-77
2023/10/11 06:49:55;;;;;;;6.60;3.50;;;;;;;16.76;57.47;100860.81;5020769;27;97310;-77
2023/10/11 06:52:25;;;;;;;3.23;2.93;;;;;;;16.78;57.37;100874.97;5036989;27;100916;-77
2023/10/11 06:57:39;;;;;;;3.53;2.90;;;;;;;16.78;57.39;100877.75;5019749;28;97434;-77
2023/10/11 07:00:12;;;;;;;8.43;3.80;;;;;;;16.79;57.40;100879.25;5020903;28;97387;-77
2023/10/11 07:02:47;;;;;;;3.53;3.00;;;;;;;16.83;57.43;100874.81;5020096;28;97688;-77
2023/10/11 07:05:17;;;;;;;6.47;3.17;;;;;;;16.82;57.41;100850.94;5021115;28;97148;-78
2023/10/11 07:07:47;;;;;;;4.17;3.30;;;;;;;16.83;57.33;100862.88;5016910;28;97084;-77
2023/10/11 07:10:27;;;;;;;5.23;2.47;;;;;;;16.85;57.35;100875.00;5019369;28;97520;-79
2023/10/11 07:13:14;;;;;;;5.10;3.63;;;;;;;16.86;57.31;100862.50;5020624;28;98056;-77
2023/10/11 07:15:43;;;;;;;3.17;2.70;;;;;;;16.91;57.14;100878.34;5020285;28;97017;-77
2023/10/11 07:18:21;;;;;;;4.27;2.90;;;;;;;16.94;57.15;100874.47;5021435;28;98946;-78
2023/10/11 07:20:49;;;;;;;3.70;3.17;;;;;;;16.98;57.23;100883.22;5019956;28;97912;-78
2023/10/11 07:23:21;;;;;;;6.20;3.30;;;;;;;17.02;57.00;100877.25;5019629;28;96700;-78
2023/10/11 07:26:22;;;;;;;5.40;3.57;;;;;;;17.03;56.93;100878.75;5022046;27;97222;-78
2023/10/11 07:28:50;;;;;;;5.33;2.80;;;;;;;17.06;57.04;100869.25;5019185;28;97017;-78
2023/10/11 07:31:17;;;;;;;6.73;3.50;;;;;;;17.12;57.05;100881.75;5018399;28;97458;-77
2023/10/11 07:33:43;;;;;;;3.00;2.70;;;;;;;17.18;56.70;100885.13;5019895;27;97343;-78
2023/10/11 07:36:11;;;;;;;2.57;2.30;;;;;;;17.19;56.77;100883.81;5020232;27;97325;-79
2023/10/11 07:38:43;;;;;;;10.97;3.50;;;;;;;17.26;56.71;100888.66;5018028;28;98043;-77
2023/10/11 07:41:17;;;;;;;5.20;3.10;;;;;;;17.32;56.69;100889.22;5020197;28;97458;-77
2023/10/11 07:43:45;;;;;;;2.73;2.53;;;;;;;17.35;56.47;100898.56;5018820;28;97464;-78
2023/10/11 07:46:11;;;;;;;4.40;3.70;;;;;;;17.40;56.26;100901.16;5017904;27;98095;-78
2023/10/11 07:48:39;;;;;;;7.73;3.20;;;;;;;17.48;56.42;100908.81;5020004;28;96746;-78
2023/10/11 07:51:10;;;;;;;6.10;3.97;;;;;;;17.49;56.21;100907.53;5020299;28;97589;-78
2023/10/11 07:53:41;;;;;;;4.97;3.30;;;;;;;17.52;56.19;100892.41;5020582;28;97253;-78
2023/10/11 07:56:08;;;;;;;5.13;3.50;;;;;;;17.55;56.25;100899.72;5015674;27;97132;-78
2023/10/11 07:58:35;;;;;;;4.23;3.17;;;;;;;17.57;56.09;100903.44;5021772;27;96946;-79
2023/10/11 08:01:04;;;;;;;3.27;2.70;;;;;;;17.62;56.11;100894.09;5018624;28;100634;-78
2023/10/11 08:03:35;;;;;;;3.07;2.67;;;;;;;17.66;56.19;100891.69;5021460;28;97208;-78
2023/10/11 08:06:08;;;;;;;5.47;3.30;;;;;;;17.75;56.17;100901.56;5020437;28;97307;-77
2023/10/11 08:08:37;;;;;;;4.63;2.87;;;;;;;17.79;55.94;100888.69;5039212;27;97281;-78
2023/10/11 08:11:06;;;;;;;3.93;2.83;;;;;;;17.84;55.81;100882.16;5024373;28;96826;-77
2023/10/11 08:13:32;;;;;;;5.80;3.30;;;;;;;17.90;55.88;100899.50;5022627;28;101014;-77
2023/10/11 08:15:58;;;;;;;3.10;2.80;;;;;;;17.96;55.65;100893.69;5024247;27;97208;-78
2023/10/11 08:18:27;;;;;;;4.17;3.20;;;;;;;17.98;55.66;100896.69;5040931;27;96892;-78
2023/10/11 08:20:52;;;;;;;3.23;2.50;;;;;;;18.02;55.49;100888.66;5022881;28;97125;-78
2023/10/11 08:23:29;;;;;;;3.10;2.83;;;;;;;18.04;55.26;100886.03;5023823;28;97702;-78
2023/10/11 08:25:56;;;;;;;4.67;2.90;;;;;;;18.10;55.34;100890.13;5024155;28;97006;-78
2023/10/11 08:28:28;;;;;;;5.20;2.87;;;;;;;18.15;55.12;100875.19;5023143;27;97657;-77
2023/10/11 08:30:59;;;;;;;6.30;2.50;;;;;;;18.19;55.00;100877.59;5021375;28;97609;-78
2023/10/11 08:33:25;;;;;;;3.00;2.60;;;;;;;18.24;55.11;100881.50;5023801;28;97194;-79
2023/10/11 08:35:53;;;;;;;8.20;3.37;;;;;;;18.26;54.91;100881.66;5021830;28;97028;-77
2023/10/11 08:38:19;;;;;;;2.73;2.50;;;;;;;18.28;54.82;100890.25;5022727;28;97190;-79
2023/10/11 08:40:49;;;;;;;2.60;2.40;;;;;;;18.29;54.84;100877.75;5023611;28;97389;-79
2023/10/11 08:43:15;;;;;;;7.90;2.97;;;;;;;18.29;54.64;100892.50;5023291;27;97954;-78
2023/10/11 08:45:49;;;;;;;5.03;3.10;;;;;;;18.31;54.51;100909.50;5025503;27;96897;-77
2023/10/11 08:48:15;;;;;;;3.73;3.30;;;;;;;18.35;54.81;100901.47;5024281;27;99490;-77
2023/10/11 08:50:51;;;;;;;4.60;2.63;;;;;;;18.35;54.70;100890.28;5023191;27;100723;-77
2023/10/11 08:53:20;;;;;;;3.83;2.87;;;;;;;18.40;54.78;100889.31;5023598;28;96844;-77
2023/10/11 08:55:51;;;;;;;5.00;3.13;;;;;;;18.46;54.56;100889.09;5023273;27;97294;-77
2023/10/11 08:58:28;;;;;;;4.50;3.10;;;;;;;18.49;54.58;100885.94;5039220;27;97531;-78
2023/10/11 09:00:59;;;;;;;7.40;3.20;;;;;;;18.52;54.17;100895.22;5021798;27;99708;-77
2023/10/11 09:03:31;;;;;;;5.87;3.20;;;;;;;18.56;54.37;100898.41;5023411;27;97214;-78
2023/10/11 09:05:59;;;;;;;4.10;3.00;;;;;;;18.64;54.04;100897.06;5022775;28;96812;-78
2023/10/11 09:08:28;;;;;;;4.13;2.80;;;;;;;18.68;53.91;100880.59;5022834;28;97310;-79
2023/10/11 09:11:28;;;;;;;4.33;3.60;;;;;;;18.72;52.99;100885.81;5022403;27;98035;-78
2023/10/11 09:14:14;;;;;;;7.53;2.80;;;;;;;18.74;52.81;100881.13;5022210;27;96936;-79
2023/10/11 09:16:40;;;;;;;4.33;2.80;;;;;;;18.76;53.65;100872.88;5022114;28;97149;-77
2023/10/11 09:19:06;;;;;;;4.80;3.20;;;;;;;18.79;53.67;100871.75;5022554;27;97086;-79
2023/10/11 09:21:42;;;;;;;6.73;2.83;;;;;;;18.83;53.59;100882.56;5022535;28;96936;-77
2023/10/11 09:24:38;;;;;;;4.17;3.00;;;;;;;18.85;52.70;100871.53;5024987;27;100341;-77
2023/10/11 09:29:49;;;;;;;3.53;3.00;;;;;;;18.95;53.72;100861.22;5018136;27;97152;-76
2023/10/11 09:32:19;;;;;;;2.87;2.57;;;;;;;18.98;53.34;100867.72;5020680;28;98255;-79
2023/10/11 09:34:46;;;;;;;2.90;2.60;;;;;;;19.00;53.17;100867.91;5023704;27;98214;-77
2023/10/11 09:37:12;;;;;;;6.87;3.17;;;;;;;19.02;53.27;100873.69;5020163;28;96748;-79
2023/10/11 09:39:45;;;;;;;4.10;3.00;;;;;;;19.06;53.09;100857.22;5023069;28;97196;-77
2023/10/11 09:42:13;;;;;;;5.97;3.50;;;;;;;19.09;53.06;100859.63;5020934;28;97933;-77
2023/10/11 09:44:40;;;;;;;5.43;3.30;;;;;;;19.14;53.14;100860.72;5022538;27;97063;-79
2023/10/11 09:47:16;;;;;;;5.03;3.23;;;;;;;19.20;52.84;100866.84;5022546;27;97036;-77
2023/10/11 09:49:42;;;;;;;7.90;3.90;;;;;;;19.22;52.81;100844.56;5017495;27;97027;-78
2023/10/11 09:52:23;;;;;;;4.50;3.37;;;;;;;19.27;52.94;100869.59;5020807;27;100739;-77
2023/10/11 09:54:50;;;;;;;4.10;2.90;;;;;;;19.38;52.99;100865.59;5038695;27;99719;-78
2023/10/11 09:57:35;;;;;;;7.10;3.03;;;;;;;19.46;52.40;100857.84;5020364;27;97430;-77
2023/10/11 10:00:34;;;;;;;4.00;2.63;;;;;;;19.52;52.12;100855.56;5021155;27;97396;-77
2023/10/11 10:03:04;;;;;;;3.47;3.00;;;;;;;19.54;52.85;100872.56;5021282;28;99663;-77
2023/10/11 10:06:04;;;;;;;2.93;2.70;;;;;;;19.56;51.99;100862.22;5022115;27;101099;-77
2023/10/11 10:08:30;;;;;;;5.40;3.30;;;;;;;19.64;52.71;100859.38;5017438;27;97062;-79
2023/10/11 10:10:55;;;;;;;6.47;2.77;;;;;;;19.69;52.62;100869.63;5021247;27;97004;-78
2023/10/11 10:13:24;;;;;;;3.80;2.93;;;;;;;19.71;52.38;100866.97;5024608;28;97104;-79
2023/10/11 10:15:52;;;;;;;5.20;3.17;;;;;;;19.81;52.38;100867.81;5018283;27;100192;-77
2023/10/11 10:18:22;;;;;;;8.83;3.70;;;;;;;19.89;52.21;100871.34;5022891;28;97289;-77
2023/10/11 10:21:01;;;;;;;4.20;2.90;;;;;;;19.90;51.04;100867.19;5023694;28;97164;-79
2023/10/11 10:23:29;;;;;;;3.13;2.40;;;;;;;19.93;52.12;100877.28;5022335;27;100558;-78
2023/10/11 10:26:07;;;;;;;5.40;3.00;;;;;;;19.97;50.59;100860.00;5040062;27;100671;-79
2023/10/11 10:28:34;;;;;;;4.43;3.17;;;;;;;19.97;51.67;100863.56;5015559;28;97327;-79
2023/10/11 10:31:09;;;;;;;5.33;3.33;;;;;;;19.96;51.07;100853.63;5017641;28;97801;-77
2023/10/11 10:33:36;;;;;;;2.80;2.30;;;;;;;19.97;51.46;100857.19;5016717;28;97673;-78
2023/10/11 10:36:40;;;;;;;3.13;2.80;;;;;;;20.00;50.01;100862.38;5037985;27;99930;-78
2023/10/11 10:41:36;;;;;;;5.43;3.20;;;;;;;20.14;51.40;100857.19;5014150;28;97265;-77
2023/10/11 10:44:11;;;;;;;3.73;2.80;;;;;;;20.23;51.21;100860.09;5016755;28;97241;-78
2023/10/11 10:46:49;;;;;;;10.93;3.37;;;;;;;20.29;50.64;100857.00;5012631;28;97148;-77
2023/10/11 10:49:17;;;;;;;6.70;3.20;;;;;;;20.33;51.19;100866.50;5015861;27;97209;-78
2023/10/11 10:51:47;;;;;;;5.50;3.00;;;;;;;20.40;51.05;100861.38;5029117;27;96811;-78
2023/10/11 10:54:13;;;;;;;5.37;3.20;;;;;;;20.46;51.02;100853.44;5018609;28;97294;-79
2023/10/11 10:56:40;;;;;;;5.90;2.93;;;;;;;20.50;50.81;100851.72;5022225;28;98957;-77
2023/10/11 10:59:14;;;;;;;4.77;2.83;;;;;;;20.53;50.59;100842.09;5017711;28;96980;-78
2023/10/11 11:01:46;;;;;;;6.77;2.97;;;;;;;20.56;50.81;100851.47;5017403;27;97021;-78
2023/10/11 11:04:13;;;;;;;6.37;3.27;;;;;;;20.62;50.68;100860.38;5020650;28;98019;-77
2023/10/11 11:06:44;;;;;;;8.90;2.80;;;;;;;20.70;50.62;100853.31;5014605;27;96999;-76
2023/10/11 11:09:14;;;;;;;4.47;2.80;;;;;;;20.79;50.45;100851.88;5010731;27;97064;-76
2023/10/11 11:11:41;;;;;;;6.57;2.60;;;;;;;20.87;50.48;100863.78;5021267;27;96895;-78
2023/10/11 11:14:11;;;;;;;7.10;3.07;;;;;;;20.89;50.09;100855.50;5018677;27;97350;-77
2023/10/11 11:16:40;;;;;;;6.50;3.20;;;;;;;20.95;50.41;100862.34;5021651;28;98781;-77
2023/10/11 11:19:17;;;;;;;5.13;3.40;;;;;;;21.07;49.72;100866.09;5031386;27;97471;-77
2023/10/11 11:21:46;;;;;;;5.27;3.60;;;;;;;21.14;49.84;100881.38;5018130;28;96958;-76
2023/10/11 11:24:27;;;;;;;6.43;3.30;;;;;;;21.17;49.70;100871.75;5016043;28;99733;-77
2023/10/11 11:26:54;;;;;;;7.87;3.13;;;;;;;21.18;50.15;100878.88;5017092;27;99421;-77
2023/10/11 11:29:33;;;;;;;6.40;3.40;;;;;;;21.21;49.39;100877.69;5021937;28;97245;-78
2023/10/11 11:31:59;;;;;;;4.80;3.07;;;;;;;21.26;50.05;100893.59;5019329;28;96978;-76
2023/10/11 11:34:35;;;;;;;4.57;3.03;;;;;;;21.26;49.90;100892.84;5020260;28;97589;-77
2023/10/11 11:37:07;;;;;;;5.67;3.10;;;;;;;21.31;50.23;100905.94;5019324;28;100503;-78
2023/10/11 11:39:42;;;;;;;7.53;3.40;;;;;;;21.29;50.41;100891.69;5022091;28;97171;-76
2023/10/11 11:42:19;;;;;;;6.13;3.53;;;;;;;21.44;50.61;100897.09;5022751;28;97198;-77
2023/10/11 11:44:46;;;;;;;9.37;3.07;;;;;;;21.46;50.16;100900.81;5022170;28;97427;-77
2023/10/11 11:47:13;;;;;;;4.23;3.13;;;;;;;21.48;50.35;100889.69;5014128;27;100448;-78
2023/10/11 11:49:38;;;;;;;5.83;3.80;;;;;;;21.45;50.15;100876.78;5022538;28;96989;-78
2023/10/11 11:52:04;;;;;;;4.20;3.07;;;;;;;21.46;50.23;100871.91;5018210;28;96999;-78
2023/10/11 11:54:29;;;;;;;7.70;2.90;;;;;;;21.53;50.21;100882.28;5020457;28;97098;-78
2023/10/11 11:56:56;;;;;;;6.27;3.20;;;;;;;21.52;50.29;100881.53;5026651;28;97184;-78
2023/10/11 11:59:23;;;;;;;7.70;3.80;;;;;;;21.44;50.21;100886.56;5021681;28;97515;-78
2023/10/11 12:01:52;;;;;;;5.60;3.40;;;;;;;21.32;50.41;100890.50;5026556;27;98599;-78
2023/10/11 12:04:28;;;;;;;4.17;2.87;;;;;;;21.24;50.54;100892.69;5019588;28;97140;-77
2023/10/11 12:06:57;;;;;;;5.37;2.97;;;;;;;21.16;50.75;100884.34;5023494;27;98207;-78
2023/10/11 12:09:22;;;;;;;4.70;3.50;;;;;;;21.08;50.83;100900.59;5042385;27;97009;-78
2023/10/11 12:11:53;;;;;;;6.97;3.27;;;;;;;20.97;51.29;100890.63;5017266;28;96975;-77
2023/10/11 12:14:22;;;;;;;4.60;3.33;;;;;;;20.87;51.51;100900.34;5024128;28;100082;-78
2023/10/11 12:16:48;;;;;;;3.77;2.77;;;;;;;20.75;51.60;100908.56;5022180;27;100393;-78
2023/10/11 12:19:14;;;;;;;6.57;3.17;;;;;;;20.68;51.58;100905.84;5023347;28;97002;-77
2023/10/11 12:21:40;;;;;;;4.70;3.00;;;;;;;20.61;52.08;100887.00;5020679;27;96906;-77
2023/10/11 12:24:11;;;;;;;5.70;3.70;;;;;;;20.51;51.82;100897.41;5026569;28;97513;-77
2023/10/11 12:26:43;;;;;;;5.40;3.63;;;;;;;20.48;52.45;100881.72;5024894;27;99072;-79
2023/10/11 12:29:12;;;;;;;5.03;3.20;;;;;;;20.79;52.19;100868.75;5030011;27;96961;-78
2023/10/11 12:31:39;;;;;;;4.87;3.10;;;;;;;21.17;51.91;100863.31;5030822;27;96658;-77
2023/10/11 12:34:11;;;;;;;3.17;2.80;;;;;;;21.52;51.47;100872.34;5028821;27;96646;-77
2023/10/11 12:36:41;;;;;;;4.43;3.30;;;;;;;21.88;51.31;100866.63;5026657;28;96639;-78
2023/10/11 12:39:08;;;;;;;3.80;3.13;;;;;;;22.00;50.62;100867.56;5043254;27;96974;-79